Time;durP1;ratioP1;P1;durP2;ratioP2;P2;SDS_P1;SDS_P2;PMS_P1;PMS_P2;Temp;Humidity;BMP_temperature;BMP_pressure;BME280_temperature;BME280_humidity;BME280_pressure;Samples;Min_cycle;Max_cycle;Signal;HPM_P1;HPM_P2
2024/04/22 00:02:28;;;;;;;35.92;14.70;;;2.70;99.90;;;;;;7507042;19;20731;-76
2024/04/22 00:05:00;;;;;;;28.73;13.18;;;2.70;99.90;;;;;;7513135;19;20488;-76
2024/04/22 00:07:31;;;;;;;23.48;12.48;;;2.60;99.90;;;;;;7515937;19;20285;-77
2024/04/22 00:10:03;;;;;;;20.20;11.20;;;2.50;99.90;;;;;;7493497;19;20534;-77
2024/04/22 00:12:34;;;;;;;23.70;11.63;;;2.60;99.90;;;;;;7517249;19;20015;-77
2024/04/22 00:15:06;;;;;;;26.30;12.35;;;2.60;99.90;;;;;;7529760;19;20014;-75
2024/04/22 00:17:37;;;;;;;30.60;12.35;;;2.50;99.90;;;;;;7511529;19;20798;-76
2024/04/22 00:20:11;;;;;;;25.95;12.65;;;2.50;99.90;;;;;;7521593;19;21399;-77
2024/04/22 00:22:42;;;;;;;35.38;12.98;;;2.50;99.90;;;;;;7478403;19;20548;-75
2024/04/22 00:25:13;;;;;;;27.77;12.00;;;2.50;99.90;;;;;;7506322;19;20790;-76
2024/04/22 00:27:45;;;;;;;27.60;12.57;;;2.50;99.90;;;;;;7541245;19;20875;-76
2024/04/22 00:30:16;;;;;;;42.00;14.57;;;2.50;99.90;;;;;;7502214;19;20309;-76
2024/04/22 00:32:47;;;;;;;30.60;13.35;;;2.50;99.90;;;;;;7530127;19;20354;-75
2024/04/22 00:35:19;;;;;;;18.92;10.48;;;2.40;99.90;;;;;;7502270;19;20144;-75
2024/04/22 00:37:50;;;;;;;23.55;11.55;;;2.50;99.90;;;;;;7508845;19;20014;-76
2024/04/22 00:40:21;;;;;;;24.10;11.73;;;2.60;99.90;;;;;;7513469;19;20596;-76
2024/04/22 00:42:52;;;;;;;21.25;11.38;;;2.60;99.90;;;;;;7539426;19;20043;-77
2024/04/22 00:45:23;;;;;;;20.10;10.75;;;2.60;99.90;;;;;;7516385;19;20011;-76
2024/04/22 00:47:55;;;;;;;16.83;9.30;;;2.60;99.90;;;;;;7513385;19;20032;-76
2024/04/22 00:50:26;;;;;;;19.98;9.35;;;2.70;99.90;;;;;;7512311;19;20992;-76
2024/04/22 00:52:59;;;;;;;13.23;7.57;;;2.80;99.90;;;;;;7525559;19;20507;-77
2024/04/22 00:55:30;;;;;;;11.82;6.70;;;2.80;99.90;;;;;;7518910;19;20094;-76
2024/04/22 00:58:06;;;;;;;12.27;7.07;;;2.90;99.90;;;;;;7513324;19;20011;-76
2024/04/22 01:00:39;;;;;;;11.63;6.88;;;2.90;99.90;;;;;;7519650;19;20018;-77
2024/04/22 01:03:10;;;;;;;12.20;6.67;;;2.90;99.90;;;;;;7522958;19;20041;-77
2024/04/22 01:05:42;;;;;;;11.20;6.72;;;2.90;99.90;;;;;;7487108;19;20279;-77
2024/04/22 01:08:13;;;;;;;12.13;6.78;;;2.80;99.90;;;;;;7510425;19;21103;-75
2024/04/22 01:10:44;;;;;;;10.23;6.55;;;2.80;99.90;;;;;;7519299;19;20397;-78
2024/04/22 01:13:15;;;;;;;13.68;7.63;;;2.80;99.90;;;;;;7508908;19;20039;-76
2024/04/22 01:15:46;;;;;;;13.50;7.78;;;2.90;99.90;;;;;;7517844;19;20089;-76
2024/04/22 01:18:18;;;;;;;13.27;7.60;;;2.90;99.90;;;;;;7489917;19;20081;-76
2024/04/22 01:20:50;;;;;;;12.23;7.38;;;3.00;99.90;;;;;;7501163;19;20022;-76
2024/04/22 01:23:21;;;;;;;13.45;7.72;;;2.90;99.90;;;;;;7518989;19;20014;-76
2024/04/22 01:25:57;;;;;;;13.07;7.82;;;3.00;99.90;;;;;;7498064;19;20062;-76
2024/04/22 01:28:28;;;;;;;12.82;7.57;;;3.00;99.90;;;;;;7518019;19;20018;-77
2024/04/22 01:30:59;;;;;;;14.95;7.93;;;3.00;99.90;;;;;;7499509;19;20010;-77
2024/04/22 01:33:31;;;;;;;12.45;7.18;;;3.10;99.90;;;;;;7544887;19;20153;-76
2024/04/22 01:36:02;;;;;;;18.98;9.43;;;3.00;99.90;;;;;;7510722;19;20015;-77
2024/04/22 01:38:34;;;;;;;16.77;9.10;;;3.00;99.90;;;;;;7531021;19;20029;-76
2024/04/22 01:41:05;;;;;;;14.05;8.43;;;3.10;99.90;;;;;;7502011;19;20368;-77
2024/04/22 01:43:36;;;;;;;16.58;8.60;;;3.00;99.90;;;;;;7520366;19;20346;-77
2024/04/22 01:46:08;;;;;;;15.55;9.60;;;3.10;99.90;;;;;;7495038;19;20094;-77
2024/04/22 01:48:39;;;;;;;15.05;9.18;;;3.00;99.90;;;;;;7515586;19;20019;-77
2024/04/22 01:51:11;;;;;;;24.02;10.02;;;3.00;99.90;;;;;;7522392;19;20047;-77
2024/04/22 01:53:42;;;;;;;17.10;10.13;;;3.00;99.90;;;;;;7529942;19;21145;-77
2024/04/22 01:56:13;;;;;;;17.52;9.52;;;3.00;99.90;;;;;;7517458;19;20022;-77
2024/04/22 01:58:45;;;;;;;19.40;10.55;;;3.00;99.90;;;;;;7521174;19;20012;-79
2024/04/22 02:01:16;;;;;;;18.67;10.65;;;3.00;99.90;;;;;;7520124;19;20018;-77
2024/04/22 02:03:48;;;;;;;16.63;9.65;;;3.10;99.90;;;;;;7540285;19;20018;-78
2024/04/22 02:06:19;;;;;;;18.73;10.52;;;3.10;99.90;;;;;;7524088;19;20015;-79
2024/04/22 02:08:51;;;;;;;18.15;9.80;;;3.10;99.90;;;;;;7529510;19;20017;-79
2024/04/22 02:11:22;;;;;;;15.38;9.35;;;3.10;99.90;;;;;;7517584;19;20046;-79
2024/04/22 02:13:54;;;;;;;25.02;11.68;;;3.10;99.90;;;;;;7507848;19;20018;-78
2024/04/22 02:16:25;;;;;;;17.63;9.85;;;3.10;99.90;;;;;;7530865;19;20043;-76
2024/04/22 02:18:57;;;;;;;16.98;10.07;;;3.00;99.90;;;;;;7528531;19;25289;-77
2024/04/22 02:21:28;;;;;;;17.05;10.35;;;3.10;99.90;;;;;;7513016;19;20022;-76
2024/04/22 02:23:59;;;;;;;17.50;10.15;;;3.10;99.90;;;;;;7500878;19;20599;-78
2024/04/22 02:26:31;;;;;;;23.90;11.95;;;3.10;99.90;;;;;;7523826;19;20021;-79
2024/04/22 02:29:03;;;;;;;25.08;11.68;;;3.10;99.90;;;;;;7504148;19;20117;-77
2024/04/22 02:31:34;;;;;;;21.85;11.27;;;3.00;99.90;;;;;;7511247;19;20033;-78
2024/04/22 02:34:06;;;;;;;22.35;11.48;;;3.10;99.90;;;;;;7518636;19;20006;-79
2024/04/22 02:36:37;;;;;;;22.75;14.32;;;3.00;99.90;;;;;;7523711;19;20242;-79
2024/04/22 02:39:09;;;;;;;20.17;12.68;;;3.00;99.90;;;;;;7490500;19;20016;-79
2024/04/22 02:41:44;;;;;;;26.05;15.55;;;3.00;99.90;;;;;;7501702;19;20014;-79
2024/04/22 02:44:15;;;;;;;26.55;16.10;;;3.10;99.90;;;;;;7506920;19;20021;-78
2024/04/22 02:46:46;;;;;;;28.70;16.67;;;3.10;99.90;;;;;;7504846;19;20119;-81
2024/04/22 02:49:18;;;;;;;29.98;17.52;;;3.10;99.90;;;;;;7507711;19;20018;-79
2024/04/22 02:51:49;;;;;;;35.33;18.67;;;3.10;99.90;;;;;;7515919;19;21195;-81
2024/04/22 02:54:25;;;;;;;26.33;17.13;;;3.10;99.90;;;;;;7508156;19;20041;-80
2024/04/22 02:56:56;;;;;;;27.67;17.88;;;3.10;99.90;;;;;;7514389;19;21375;-81
2024/04/22 02:59:29;;;;;;;34.22;19.30;;;3.00;99.90;;;;;;7508170;19;20019;-80
2024/04/22 03:02:01;;;;;;;32.17;19.58;;;3.00;99.90;;;;;;7533074;19;20007;-81
2024/04/22 03:04:33;;;;;;;32.22;18.02;;;3.00;99.90;;;;;;7524253;19;20026;-80
2024/04/22 03:07:07;;;;;;;32.83;20.52;;;3.00;99.90;;;;;;7536569;19;20359;-78
2024/04/22 03:09:42;;;;;;;32.15;18.88;;;3.00;99.90;;;;;;7523942;19;20019;-80
2024/04/22 03:12:15;;;;;;;34.67;20.38;;;3.00;99.90;;;;;;7519322;19;20014;-80
2024/04/22 03:14:46;;;;;;;36.25;19.70;;;3.00;99.90;;;;;;7519896;19;20018;-79
2024/04/22 03:17:19;;;;;;;32.28;20.38;;;3.10;99.90;;;;;;7528239;19;20589;-80
2024/04/22 03:19:50;;;;;;;32.95;20.67;;;3.00;99.90;;;;;;7529515;19;20051;-79
2024/04/22 03:22:22;;;;;;;30.88;19.17;;;3.00;99.90;;;;;;7513918;19;20015;-80
2024/04/22 03:24:53;;;;;;;38.33;20.38;;;3.00;99.90;;;;;;7523477;19;20190;-79
2024/04/22 03:27:24;;;;;;;33.50;19.58;;;3.00;99.90;;;;;;7531530;19;20398;-82
2024/04/22 03:29:55;;;;;;;34.10;19.55;;;3.00;99.90;;;;;;7544482;19;20015;-80
2024/04/22 03:32:27;;;;;;;31.30;20.08;;;3.00;99.90;;;;;;7522720;19;20053;-79
2024/04/22 03:34:58;;;;;;;32.70;19.23;;;3.00;99.90;;;;;;7530132;19;20014;-78
2024/04/22 03:37:29;;;;;;;32.78;19.83;;;3.00;99.90;;;;;;7542040;19;24684;-79
2024/04/22 03:40:00;;;;;;;35.38;19.75;;;2.90;99.90;;;;;;7533184;19;20043;-83
2024/04/22 03:42:32;;;;;;;33.50;20.63;;;2.90;99.90;;;;;;7544499;19;20019;-80
2024/04/22 03:45:03;;;;;;;36.47;20.33;;;3.00;99.90;;;;;;7540388;19;20358;-80
2024/04/22 03:50:25;;;;;;;32.65;19.58;;;3.00;99.90;;;;;;7543108;19;20015;-81
2024/04/22 03:52:56;;;;;;;32.95;19.23;;;2.90;99.90;;;;;;7559604;19;20039;-80
2024/04/22 03:55:29;;;;;;;34.75;19.08;;;2.90;99.90;;;;;;7543612;19;20481;-82
2024/04/22 03:58:00;;;;;;;33.00;19.98;;;2.80;99.90;;;;;;7555627;19;20018;-79
2024/04/22 04:00:32;;;;;;;31.73;19.98;;;2.80;99.90;;;;;;7567348;19;20033;-80
2024/04/22 04:03:03;;;;;;;31.42;19.30;;;2.70;99.90;;;;;;7554819;19;20010;-82
2024/04/22 04:05:34;;;;;;;32.63;20.13;;;2.80;99.90;;;;;;7550087;19;20015;-82
2024/04/22 04:08:06;;;;;;;32.55;20.67;;;2.70;99.90;;;;;;7564856;19;20014;-81
2024/04/22 04:10:38;;;;;;;34.20;21.08;;;2.70;99.90;;;;;;7549816;19;20534;-81
2024/04/22 04:13:09;;;;;;;36.15;19.33;;;2.70;99.90;;;;;;7546331;19;20018;-82
2024/04/22 04:15:41;;;;;;;36.55;21.42;;;2.80;99.90;;;;;;7539109;19;20018;-78
2024/04/22 04:18:12;;;;;;;34.70;19.58;;;2.80;99.90;;;;;;7540554;19;20109;-82
2024/04/22 04:20:43;;;;;;;31.95;20.35;;;2.80;99.90;;;;;;7549753;19;20036;-81
2024/04/22 04:23:14;;;;;;;33.97;19.70;;;2.80;99.90;;;;;;7528154;19;20010;-80
2024/04/22 04:25:45;;;;;;;34.15;19.88;;;2.80;99.90;;;;;;7523580;19;20027;-80
2024/04/22 04:28:17;;;;;;;31.33;18.38;;;2.80;99.90;;;;;;7535473;19;20018;-79
2024/04/22 04:30:55;;;;;;;27.70;18.08;;;2.90;99.90;;;;;;7528303;19;20560;-78
2024/04/22 04:33:27;;;;;;;33.47;19.58;;;2.90;99.90;;;;;;7512871;19;20479;-80
2024/04/22 04:36:07;;;;;;;30.15;18.90;;;2.90;99.90;;;;;;7518045;19;20019;-81
2024/04/22 04:38:38;;;;;;;30.73;17.73;;;2.80;99.90;;;;;;7525360;19;20064;-79
2024/04/22 04:41:09;;;;;;;31.70;18.60;;;2.90;99.90;;;;;;7520399;19;20718;-81
2024/04/22 04:43:40;;;;;;;28.83;18.02;;;2.90;99.90;;;;;;7502181;19;20023;-83
2024/04/22 04:46:11;;;;;;;29.38;18.77;;;2.90;99.90;;;;;;7501352;19;20036;-82
2024/04/22 04:48:43;;;;;;;27.90;17.80;;;2.90;99.90;;;;;;7524294;19;20703;-82
2024/04/22 04:51:14;;;;;;;30.15;18.77;;;2.90;99.90;;;;;;7519556;19;20029;-83
2024/04/22 04:53:45;;;;;;;31.98;19.35;;;2.80;99.90;;;;;;7528602;19;20014;-82
2024/04/22 04:56:16;;;;;;;33.13;17.95;;;2.90;99.90;;;;;;7528879;19;20985;-81
2024/04/22 04:58:47;;;;;;;29.80;18.20;;;2.90;99.90;;;;;;7528051;19;20663;-79
2024/04/22 05:01:19;;;;;;;27.10;17.02;;;2.90;99.90;;;;;;7546608;19;20014;-80
2024/04/22 05:03:50;;;;;;;31.38;17.70;;;2.90;99.90;;;;;;7541814;19;20039;-81
2024/04/22 05:06:21;;;;;;;27.90;17.27;;;2.90;99.90;;;;;;7537651;19;20161;-79
2024/04/22 05:08:53;;;;;;;28.25;17.23;;;2.90;99.90;;;;;;7568385;19;20010;-79
2024/04/22 05:11:24;;;;;;;26.67;17.20;;;2.90;99.90;;;;;;7551357;19;20018;-82
2024/04/22 05:13:55;;;;;;;28.85;17.98;;;2.90;99.90;;;;;;7545086;19;21555;-80
2024/04/22 05:16:26;;;;;;;24.63;16.02;;;2.90;99.90;;;;;;7549111;19;21360;-83
2024/04/22 05:18:57;;;;;;;29.52;18.40;;;2.90;99.90;;;;;;7544886;19;20770;-81
2024/04/22 05:21:29;;;;;;;26.73;16.88;;;2.90;99.90;;;;;;7522666;19;20065;-78
2024/04/22 05:24:10;;;;;;;36.05;19.17;;;2.90;99.90;;;;;;7565151;19;20057;-80
2024/04/22 05:26:42;;;;;;;27.55;17.08;;;2.90;99.90;;;;;;7554236;19;20634;-79
2024/04/22 05:29:13;;;;;;;27.05;18.10;;;3.00;99.90;;;;;;7579027;19;20014;-83
2024/04/22 05:31:45;;;;;;;27.95;17.65;;;3.00;99.90;;;;;;7579493;19;22376;-81
2024/04/22 05:37:05;;;;;;;31.70;17.40;;;3.00;99.90;;;;;;7603665;19;20371;-81
2024/04/22 05:39:36;;;;;;;29.70;18.88;;;2.90;99.90;;;;;;7611536;19;20916;-80
2024/04/22 05:42:08;;;;;;;33.67;20.02;;;3.00;99.90;;;;;;7581643;19;20081;-81
2024/04/22 05:44:39;;;;;;;30.50;17.70;;;2.90;99.90;;;;;;7570079;19;20014;-80
2024/04/22 05:47:10;;;;;;;32.53;18.38;;;2.90;99.90;;;;;;7580114;19;20465;-80
2024/04/22 05:49:41;;;;;;;28.27;16.42;;;2.90;99.90;;;;;;7584312;19;20022;-81
2024/04/22 05:52:13;;;;;;;31.30;16.90;;;2.90;99.90;;;;;;7589842;19;21167;-80
2024/04/22 05:54:44;;;;;;;29.40;16.60;;;2.90;99.90;;;;;;7580832;19;20050;-79
2024/04/22 05:57:15;;;;;;;28.23;16.10;;;2.90;99.90;;;;;;7579191;19;20026;-82
2024/04/22 05:59:46;;;;;;;29.05;16.83;;;2.90;99.90;;;;;;7588401;19;20015;-80
2024/04/22 06:02:18;;;;;;;26.83;16.30;;;2.90;99.90;;;;;;7571307;19;20018;-80
2024/04/22 06:04:49;;;;;;;24.10;15.05;;;2.90;99.90;;;;;;7588778;19;20021;-78
2024/04/22 06:07:21;;;;;;;27.40;16.85;;;2.90;99.90;;;;;;7599167;19;20022;-79
2024/04/22 06:09:52;;;;;;;27.13;16.98;;;3.00;99.90;;;;;;7588041;19;20019;-79
2024/04/22 06:12:23;;;;;;;32.28;18.42;;;2.90;99.90;;;;;;7586163;19;20030;-79
2024/04/22 06:14:54;;;;;;;30.90;16.98;;;3.00;99.90;;;;;;7578455;19;20010;-79
2024/04/22 06:17:26;;;;;;;30.30;17.35;;;3.00;99.90;;;;;;7593281;19;20954;-79
2024/04/22 06:19:57;;;;;;;30.35;17.25;;;3.00;99.90;;;;;;7601532;19;20125;-81
2024/04/22 06:22:28;;;;;;;26.48;17.27;;;3.00;99.90;;;;;;7580456;19;20050;-78
2024/04/22 06:25:00;;;;;;;30.23;17.10;;;3.00;99.90;;;;;;7578913;19;20761;-80
2024/04/22 06:27:31;;;;;;;26.92;16.98;;;3.10;99.90;;;;;;7588641;19;21008;-80
2024/04/22 06:30:03;;;;;;;27.23;17.70;;;3.10;99.90;;;;;;7577103;19;20025;-81
2024/04/22 06:32:35;;;;;;;25.17;14.98;;;3.20;99.90;;;;;;7576310;19;20064;-79
2024/04/22 06:35:06;;;;;;;23.90;16.08;;;3.10;99.90;;;;;;7580134;19;20465;-79
2024/04/22 06:37:37;;;;;;;25.45;15.30;;;3.10;99.90;;;;;;7567912;19;20014;-80
2024/04/22 06:40:09;;;;;;;22.73;15.90;;;3.10;99.90;;;;;;7589643;19;20018;-79
2024/04/22 06:42:40;;;;;;;30.85;16.58;;;3.10;99.90;;;;;;7566536;19;20018;-79
2024/04/22 06:45:11;;;;;;;23.52;15.23;;;3.20;99.90;;;;;;7582795;19;20028;-78
2024/04/22 06:47:42;;;;;;;25.77;15.57;;;3.20;99.90;;;;;;7578961;19;20018;-80
2024/04/22 06:50:14;;;;;;;26.83;16.13;;;3.20;99.90;;;;;;7593033;19;20090;-80
2024/04/22 06:52:45;;;;;;;24.05;14.45;;;3.30;99.90;;;;;;7583821;19;20014;-81
2024/04/22 06:55:16;;;;;;;22.67;15.48;;;3.30;99.90;;;;;;7585617;19;20022;-80
2024/04/22 06:57:47;;;;;;;24.10;15.15;;;3.30;99.90;;;;;;7581040;19;20025;-79
2024/04/22 07:00:19;;;;;;;24.40;15.13;;;3.40;99.90;;;;;;7585782;19;20010;-79
2024/04/22 07:02:51;;;;;;;21.00;13.97;;;3.50;99.90;;;;;;7579868;19;20361;-80
2024/04/22 07:05:22;;;;;;;23.38;15.32;;;3.50;99.90;;;;;;7585640;19;20114;-80
2024/04/22 07:07:54;;;;;;;24.33;13.32;;;3.50;99.90;;;;;;7555922;19;20795;-80
2024/04/22 07:10:26;;;;;;;24.23;13.30;;;3.60;99.90;;;;;;7587481;19;20018;-80
2024/04/22 07:12:57;;;;;;;22.65;13.48;;;3.60;99.90;;;;;;7584823;19;20025;-80
2024/04/22 07:15:28;;;;;;;20.80;13.40;;;3.60;99.90;;;;;;7568472;19;20014;-80
2024/04/22 07:17:59;;;;;;;23.38;14.38;;;3.60;99.90;;;;;;7593462;19;20018;-81
2024/04/22 07:20:30;;;;;;;23.95;13.70;;;3.70;99.90;;;;;;7589181;19;20026;-79
2024/04/22 07:23:01;;;;;;;22.10;12.70;;;3.80;99.90;;;;;;7579262;19;20670;-80
2024/04/22 07:25:34;;;;;;;23.02;14.23;;;3.80;99.90;;;;;;7580811;19;20021;-79
2024/04/22 07:28:05;;;;;;;18.77;12.47;;;3.80;99.90;;;;;;7593348;19;21198;-79
2024/04/22 07:30:37;;;;;;;16.88;12.10;;;3.90;99.90;;;;;;7584789;19;20018;-80
2024/04/22 07:33:08;;;;;;;18.42;12.27;;;3.90;99.90;;;;;;7586584;19;20018;-79
2024/04/22 07:35:47;;;;;;;20.48;11.48;;;3.90;99.90;;;;;;7570616;19;20014;-79
2024/04/22 07:38:21;;;;;;;16.65;11.70;;;4.00;99.90;;;;;;7583230;19;20496;-79
2024/04/22 07:40:53;;;;;;;18.98;12.80;;;4.00;99.90;;;;;;7575938;19;20026;-80
2024/04/22 07:43:25;;;;;;;21.42;13.07;;;4.00;99.90;;;;;;7578722;19;20866;-80
2024/04/22 07:45:56;;;;;;;17.00;12.35;;;4.10;99.90;;;;;;7582586;19;20549;-79
2024/04/22 07:48:27;;;;;;;17.30;12.20;;;4.20;99.90;;;;;;7572551;19;20076;-79
2024/04/22 07:51:02;;;;;;;18.27;11.20;;;4.20;99.90;;;;;;7570285;19;20018;-79
2024/04/22 07:53:34;;;;;;;19.67;11.10;;;4.30;99.90;;;;;;7573496;19;20411;-80
2024/04/22 07:56:13;;;;;;;16.27;11.02;;;4.40;99.90;;;;;;7580627;19;20026;-80
2024/04/22 07:58:45;;;;;;;16.85;10.73;;;4.50;99.90;;;;;;7574066;19;20691;-79
2024/04/22 08:01:16;;;;;;;16.00;10.00;;;4.50;99.90;;;;;;7586426;19;20014;-80
2024/04/22 08:03:48;;;;;;;14.75;10.02;;;4.60;99.90;;;;;;7563188;19;20534;-77
2024/04/22 08:06:20;;;;;;;18.40;9.68;;;4.80;99.90;;;;;;7586893;19;20033;-80
2024/04/22 08:08:52;;;;;;;14.17;9.60;;;4.80;99.90;;;;;;7582756;19;20011;-78
2024/04/22 08:11:23;;;;;;;11.27;7.75;;;4.80;99.90;;;;;;7589130;19;20638;-78
2024/04/22 08:13:54;;;;;;;12.10;7.85;;;4.80;99.90;;;;;;7574235;19;20018;-78
2024/04/22 08:16:26;;;;;;;13.05;7.90;;;4.90;99.90;;;;;;7576866;19;20923;-78
2024/04/22 08:18:57;;;;;;;12.18;7.85;;;4.90;99.90;;;;;;7589493;19;20025;-78
2024/04/22 08:21:28;;;;;;;13.23;8.05;;;4.90;99.90;;;;;;7590725;19;21269;-79
2024/04/22 08:23:59;;;;;;;12.50;8.05;;;5.00;99.90;;;;;;7567991;19;20014;-78
2024/04/22 08:26:30;;;;;;;12.15;8.40;;;5.10;99.90;;;;;;7576728;19;20026;-78
2024/04/22 08:29:02;;;;;;;13.48;9.35;;;5.30;99.90;;;;;;7584877;19;20022;-77
2024/04/22 08:31:34;;;;;;;14.90;9.43;;;5.40;99.90;;;;;;7579395;19;20042;-78
2024/04/22 08:34:05;;;;;;;11.47;7.60;;;5.60;99.90;;;;;;7582114;19;20022;-79
2024/04/22 08:36:36;;;;;;;10.80;8.23;;;5.70;99.90;;;;;;7583320;19;20985;-77
2024/04/22 08:39:08;;;;;;;13.00;8.60;;;5.80;99.90;;;;;;7575206;19;20022;-77
2024/04/22 08:41:39;;;;;;;10.38;7.38;;;5.90;99.90;;;;;;7585794;19;20036;-78
2024/04/22 08:44:10;;;;;;;13.13;8.02;;;6.00;99.90;;;;;;7592470;19;20018;-78
2024/04/22 08:46:42;;;;;;;14.88;8.25;;;6.00;99.90;;;;;;7581337;19;20022;-78
2024/04/22 08:49:13;;;;;;;10.93;8.20;;;6.10;99.90;;;;;;7580587;19;20018;-78
2024/04/22 08:51:45;;;;;;;11.77;8.63;;;6.10;99.90;;;;;;7586992;19;20903;-78
2024/04/22 08:54:16;;;;;;;15.43;8.52;;;6.10;99.90;;;;;;7590920;19;20014;-78
2024/04/22 08:56:48;;;;;;;12.05;9.18;;;6.20;99.90;;;;;;7588044;19;20841;-78
2024/04/22 08:59:19;;;;;;;13.30;9.90;;;6.20;99.90;;;;;;7586059;19;20116;-77
2024/04/22 09:02:01;;;;;;;14.80;9.15;;;6.20;99.90;;;;;;7581905;19;20029;-78
2024/04/22 09:04:32;;;;;;;12.38;9.52;;;6.10;99.90;;;;;;7605516;19;20480;-78
2024/04/22 09:07:07;;;;;;;12.35;9.77;;;6.10;99.90;;;;;;7597257;19;20036;-78
2024/04/22 09:09:38;;;;;;;14.55;9.48;;;6.20;99.90;;;;;;7598786;19;20023;-80
2024/04/22 09:12:19;;;;;;;12.75;9.02;;;6.30;99.90;;;;;;7592746;19;20021;-80
2024/04/22 09:15:03;;;;;;;13.70;9.88;;;6.40;99.90;;;;;;7593745;19;20025;-77
2024/04/22 09:17:38;;;;;;;12.48;10.40;;;6.40;99.90;;;;;;7588738;19;20082;-77
2024/04/22 09:20:21;;;;;;;14.88;9.30;;;6.40;99.90;;;;;;7601566;19;20044;-80
2024/04/22 09:22:52;;;;;;;11.45;8.95;;;6.40;99.90;;;;;;7592435;19;20049;-77
2024/04/22 09:25:24;;;;;;;13.60;8.57;;;6.40;99.90;;;;;;7580917;19;20874;-80
2024/04/22 09:27:56;;;;;;;9.93;7.65;;;6.40;99.90;;;;;;7593143;19;20022;-79
2024/04/22 09:30:38;;;;;;;14.40;8.20;;;6.40;99.90;;;;;;7579311;19;20018;-78
2024/04/22 09:33:10;;;;;;;8.65;7.43;;;6.40;99.90;;;;;;7588692;19;20036;-78
2024/04/22 09:35:42;;;;;;;11.73;7.40;;;6.50;99.90;;;;;;7579276;19;20624;-77
2024/04/22 09:38:14;;;;;;;10.13;7.30;;;6.50;99.90;;;;;;7589232;19;20018;-78
2024/04/22 09:40:47;;;;;;;10.52;7.93;;;6.60;99.90;;;;;;7588265;19;21339;-78
2024/04/22 09:43:19;;;;;;;10.57;8.23;;;6.50;99.90;;;;;;7595335;19;20055;-77
2024/04/22 09:45:51;;;;;;;11.02;7.30;;;6.50;99.90;;;;;;7583072;19;20025;-78
2024/04/22 09:48:23;;;;;;;12.75;7.78;;;6.50;99.90;;;;;;7578113;19;20490;-79
2024/04/22 09:50:57;;;;;;;12.52;7.05;;;6.50;99.90;;;;;;7584119;19;20048;-78
2024/04/22 09:53:29;;;;;;;10.60;7.38;;;6.50;99.90;;;;;;7590328;19;20577;-77
2024/04/22 09:56:05;;;;;;;10.10;7.40;;;6.70;99.90;;;;;;7570997;19;20010;-77
2024/04/22 09:58:38;;;;;;;11.10;6.93;;;6.80;99.90;;;;;;7612154;19;20018;-77
2024/04/22 10:01:10;;;;;;;10.70;6.72;;;6.80;99.90;;;;;;7607179;19;20094;-78
2024/04/22 10:03:41;;;;;;;9.30;7.00;;;6.80;99.90;;;;;;7598586;19;20501;-79
2024/04/22 10:06:15;;;;;;;12.60;7.40;;;6.80;99.90;;;;;;7595090;19;20091;-78
2024/04/22 10:08:46;;;;;;;;;;;6.90;99.90;;;;;;7602004;19;20355;-78
2024/04/22 10:11:18;;;;;;;12.05;7.03;;;6.80;99.90;;;;;;7597212;19;19914;-82
2024/04/22 10:13:49;;;;;;;13.07;7.15;;;6.90;99.90;;;;;;7605197;19;20023;-79
2024/04/22 10:16:20;;;;;;;11.00;7.60;;;6.80;99.90;;;;;;7605210;19;20785;-80
2024/04/22 10:18:53;;;;;;;9.98;6.60;;;6.90;99.90;;;;;;7606381;19;20010;-81
2024/04/22 10:21:27;;;;;;;11.15;6.65;;;6.90;99.90;;;;;;7599684;19;20036;-80
2024/04/22 10:23:58;;;;;;;11.18;6.93;;;7.00;99.90;;;;;;7605498;19;20007;-79
2024/04/22 10:26:30;;;;;;;7.85;6.75;;;7.00;99.90;;;;;;7611124;19;20022;-80
2024/04/22 10:29:03;;;;;;;10.52;6.88;;;7.10;99.90;;;;;;7592547;19;20018;-79
2024/04/22 10:31:34;;;;;;;10.10;6.63;;;7.10;99.90;;;;;;7589284;19;20029;-78
2024/04/22 10:34:06;;;;;;;8.07;6.30;;;7.10;99.90;;;;;;7590902;19;20018;-80
2024/04/22 10:36:37;;;;;;;10.18;6.93;;;7.10;99.90;;;;;;7598726;19;20015;-80
2024/04/22 10:39:08;;;;;;;9.73;6.35;;;7.10;99.90;;;;;;7604800;19;20017;-81
2024/04/22 10:41:40;;;;;;;10.52;6.78;;;7.00;99.90;;;;;;7591036;19;20014;-78
2024/04/22 10:44:11;;;;;;;11.80;7.03;;;6.90;99.90;;;;;;7595697;19;20014;-80
2024/04/22 10:46:43;;;;;;;13.63;7.38;;;6.80;99.90;;;;;;7581885;19;20019;-79
2024/04/22 10:49:14;;;;;;;11.50;8.40;;;6.80;99.90;;;;;;7599661;19;22093;-78
2024/04/22 10:51:45;;;;;;;12.52;8.38;;;6.70;99.90;;;;;;7578324;19;20014;-78
2024/04/22 10:54:16;;;;;;;13.18;8.85;;;6.60;99.90;;;;;;7596890;19;20772;-78
2024/04/22 10:56:49;;;;;;;12.23;8.50;;;6.60;99.90;;;;;;7590699;19;21045;-77
2024/04/22 10:59:20;;;;;;;11.90;9.10;;;6.60;99.90;;;;;;7590582;19;20011;-79
2024/04/22 11:01:52;;;;;;;11.95;8.32;;;6.60;99.90;;;;;;7592363;19;20287;-78
2024/04/22 11:04:23;;;;;;;14.30;8.75;;;6.40;99.90;;;;;;7583045;19;20018;-78
2024/04/22 11:06:54;;;;;;;11.95;9.00;;;6.30;99.90;;;;;;7591364;19;20053;-79
2024/04/22 11:09:26;;;;;;;13.80;9.05;;;6.30;99.90;;;;;;7594844;19;20066;-79
2024/04/22 11:11:57;;;;;;;11.25;8.73;;;6.30;99.90;;;;;;7578361;19;21049;-78
2024/04/22 11:14:30;;;;;;;13.55;9.45;;;6.20;99.90;;;;;;7590816;19;20059;-80
2024/04/22 11:17:02;;;;;;;16.15;10.65;;;6.20;99.90;;;;;;7560578;19;20295;-79
2024/04/22 11:19:33;;;;;;;11.95;8.88;;;6.20;99.90;;;;;;7585648;19;20028;-78
2024/04/22 11:22:08;;;;;;;11.73;9.07;;;6.30;99.90;;;;;;7592256;19;20045;-79
2024/04/22 11:24:41;;;;;;;11.75;8.70;;;6.30;99.90;;;;;;7592201;19;20032;-78
2024/04/22 11:27:13;;;;;;;12.43;9.20;;;6.30;99.90;;;;;;7586115;19;20101;-78
2024/04/22 11:29:44;;;;;;;12.50;9.50;;;6.40;99.90;;;;;;7586482;19;20022;-79
2024/04/22 11:32:16;;;;;;;10.65;8.63;;;6.30;99.90;;;;;;7579259;19;20035;-79
2024/04/22 11:34:47;;;;;;;14.60;9.35;;;6.30;99.90;;;;;;7576468;19;20015;-79
2024/04/22 11:37:18;;;;;;;12.75;9.48;;;6.30;99.90;;;;;;7585500;19;20014;-80
2024/04/22 11:39:50;;;;;;;13.60;9.80;;;6.30;99.90;;;;;;7576027;19;20028;-80
2024/04/22 11:42:21;;;;;;;13.07;9.25;;;6.30;99.90;;;;;;7573236;19;20030;-79
2024/04/22 11:44:53;;;;;;;11.13;8.95;;;6.30;99.90;;;;;;7564151;19;20332;-79
2024/04/22 11:47:27;;;;;;;14.98;10.18;;;6.30;99.90;;;;;;7574823;19;20010;-79
2024/04/22 11:49:58;;;;;;;13.30;9.75;;;6.20;99.90;;;;;;7580238;19;20019;-78
2024/04/22 11:52:29;;;;;;;11.55;8.93;;;6.30;99.90;;;;;;7580233;19;20006;-79
2024/04/22 11:55:01;;;;;;;12.85;9.00;;;6.30;99.90;;;;;;7584561;19;20093;-78
2024/04/22 11:57:32;;;;;;;16.58;8.75;;;6.40;99.90;;;;;;7579182;19;20018;-79
2024/04/22 12:00:04;;;;;;;12.75;8.90;;;6.50;99.90;;;;;;7584762;19;20014;-78
2024/04/22 12:02:39;;;;;;;11.63;8.50;;;6.50;99.90;;;;;;7565194;19;20040;-78
2024/04/22 12:05:13;;;;;;;12.93;8.07;;;6.70;99.90;;;;;;7568761;19;20026;-77
2024/04/22 12:07:44;;;;;;;13.20;8.35;;;6.80;99.90;;;;;;7572344;19;20022;-78
2024/04/22 12:10:15;;;;;;;12.15;8.60;;;6.80;99.90;;;;;;7575433;19;20056;-79
2024/04/22 12:12:46;;;;;;;10.88;7.50;;;6.80;99.90;;;;;;7583320;19;20024;-77
2024/04/22 12:15:19;;;;;;;9.75;8.63;;;6.80;99.90;;;;;;7579827;19;20018;-78
2024/04/22 12:17:51;;;;;;;11.35;8.18;;;6.80;99.90;;;;;;7578022;19;20044;-78
2024/04/22 12:20:22;;;;;;;11.80;8.23;;;6.90;99.90;;;;;;7593748;19;21143;-80
2024/04/22 12:22:53;;;;;;;9.25;7.22;;;7.00;99.90;;;;;;7574698;19;20025;-81
2024/04/22 12:25:25;;;;;;;11.02;7.80;;;7.10;99.90;;;;;;7570796;19;20022;-78
2024/04/22 12:27:56;;;;;;;12.05;8.10;;;7.20;99.90;;;;;;7564493;19;20891;-78
2024/04/22 12:30:28;;;;;;;10.77;7.95;;;7.20;99.90;;;;;;7574439;19;20014;-78
2024/04/22 12:33:00;;;;;;;14.90;7.75;;;7.20;99.90;;;;;;7573008;19;20011;-78
2024/04/22 12:35:31;;;;;;;11.80;8.25;;;7.10;99.90;;;;;;7584923;19;20469;-77
2024/04/22 12:38:03;;;;;;;10.73;7.90;;;7.10;99.90;;;;;;7574872;19;20432;-78
2024/04/22 12:40:35;;;;;;;11.02;7.47;;;7.10;99.90;;;;;;7579988;19;20019;-77
2024/04/22 12:43:10;;;;;;;9.77;7.78;;;7.10;99.90;;;;;;7559081;19;20014;-77
2024/04/22 12:45:42;;;;;;;12.85;8.50;;;7.00;99.90;;;;;;7571290;19;20018;-77
2024/04/22 12:51:03;;;;;;;12.73;8.57;;;7.00;99.90;;;;;;7563174;19;20494;-79
2024/04/22 12:53:34;;;;;;;11.90;8.43;;;6.90;99.90;;;;;;7579955;19;20010;-77
2024/04/22 12:56:11;;;;;;;13.38;8.13;;;6.80;99.90;;;;;;7539431;19;20010;-78
2024/04/22 12:58:43;;;;;;;11.43;7.55;;;6.80;99.90;;;;;;7563552;19;20031;-77
2024/04/22 13:01:14;;;;;;;10.68;7.45;;;6.70;99.90;;;;;;7541596;19;20022;-78
2024/04/22 13:03:46;;;;;;;13.35;8.10;;;6.80;99.90;;;;;;7560455;19;20018;-77
2024/04/22 13:06:17;;;;;;;12.93;8.23;;;6.80;99.90;;;;;;7548518;19;20129;-78
2024/04/22 13:08:49;;;;;;;11.25;7.60;;;6.90;99.90;;;;;;7568812;19;20106;-76
2024/04/22 13:11:22;;;;;;;10.68;7.53;;;7.00;99.90;;;;;;7565533;19;20018;-78
2024/04/22 13:13:53;;;;;;;;;;;7.20;99.90;;;;;;7553754;19;20011;-77
2024/04/22 13:16:24;;;;;;;10.85;8.27;;;7.40;99.90;;;;;;7560359;19;19982;-77